Niantic, Illinois
Current Conditions -  °F | °C
As of 12:54 PM on Friday 24 Oct 2014 (Local Time) from KDEC Reporting Station
Few Clouds Few Clouds  
Wind Chill: 64°   Ceiling: Unl
Heat Index: 64°   Visibility: 9mi
Dew Point: 56°   Wind: 7mph
Humidity: 75%   Direction: 230°SW
Pressure: 30.07"   Gusts: NA
Location:  39.85°N, 89.17°W
Report Text: KDEC 241754Z 23006KT 9SM FEW029 18/13 A3007 RMK AO2 SLP183 T01780133 10183 20083 58011
Loading
Personal Weather Stations






























Interactive Weather Map
Tropical Storm Tracking
New forecast layout! Learn more

10-Day Weather Forecast

Advertisements
Track Severe Weather on mobile